sensor_id;sensor_type;location;lat;lon;timestamp;P1;durP1;ratioP1;P2;durP2;ratioP2
8268;SDS011;4174;48.304;16.364;2023-09-12T00:05:52;13.73;;;7.10;;
8268;SDS011;4174;48.304;16.364;2023-09-12T00:11:55;12.33;;;7.03;;
8268;SDS011;4174;48.304;16.364;2023-09-12T00:17:59;13.27;;;6.97;;
8268;SDS011;4174;48.304;16.364;2023-09-12T00:24:03;14.00;;;6.77;;
8268;SDS011;4174;48.304;16.364;2023-09-12T00:30:08;14.87;;;7.40;;
8268;SDS011;4174;48.304;16.364;2023-09-12T00:36:14;13.10;;;7.20;;
8268;SDS011;4174;48.304;16.364;2023-09-12T00:42:18;12.63;;;7.20;;
8268;SDS011;4174;48.304;16.364;2023-09-12T00:48:22;15.77;;;7.55;;
8268;SDS011;4174;48.304;16.364;2023-09-12T00:54:25;13.53;;;7.13;;
8268;SDS011;4174;48.304;16.364;2023-09-12T01:00:29;13.47;;;6.90;;
8268;SDS011;4174;48.304;16.364;2023-09-12T01:06:32;13.02;;;7.20;;
8268;SDS011;4174;48.304;16.364;2023-09-12T01:12:35;12.93;;;7.20;;
8268;SDS011;4174;48.304;16.364;2023-09-12T01:18:39;12.30;;;7.20;;
8268;SDS011;4174;48.304;16.364;2023-09-12T01:25:00;12.85;;;7.40;;
8268;SDS011;4174;48.304;16.364;2023-09-12T01:31:05;14.52;;;7.45;;
8268;SDS011;4174;48.304;16.364;2023-09-12T01:37:08;14.65;;;7.45;;
8268;SDS011;4174;48.304;16.364;2023-09-12T01:43:12;14.27;;;7.40;;
8268;SDS011;4174;48.304;16.364;2023-09-12T01:49:14;13.93;;;7.70;;
8268;SDS011;4174;48.304;16.364;2023-09-12T01:55:17;14.43;;;7.73;;
8268;SDS011;4174;48.304;16.364;2023-09-12T02:01:20;18.53;;;7.70;;
8268;SDS011;4174;48.304;16.364;2023-09-12T02:07:24;15.20;;;7.60;;
8268;SDS011;4174;48.304;16.364;2023-09-12T02:13:27;14.87;;;7.40;;
8268;SDS011;4174;48.304;16.364;2023-09-12T02:19:30;13.40;;;7.40;;
8268;SDS011;4174;48.304;16.364;2023-09-12T02:25:34;14.57;;;7.32;;
8268;SDS011;4174;48.304;16.364;2023-09-12T02:31:37;16.37;;;7.97;;
8268;SDS011;4174;48.304;16.364;2023-09-12T02:37:41;13.23;;;7.50;;
8268;SDS011;4174;48.304;16.364;2023-09-12T02:43:45;14.65;;;7.57;;
8268;SDS011;4174;48.304;16.364;2023-09-12T02:49:48;14.10;;;7.50;;
8268;SDS011;4174;48.304;16.364;2023-09-12T02:55:52;14.47;;;7.30;;
8268;SDS011;4174;48.304;16.364;2023-09-12T03:01:56;12.27;;;6.93;;
8268;SDS011;4174;48.304;16.364;2023-09-12T03:07:59;13.87;;;7.30;;
8268;SDS011;4174;48.304;16.364;2023-09-12T03:14:03;15.63;;;7.77;;
8268;SDS011;4174;48.304;16.364;2023-09-12T03:20:07;15.90;;;8.40;;
8268;SDS011;4174;48.304;16.364;2023-09-12T03:26:13;17.70;;;7.63;;
8268;SDS011;4174;48.304;16.364;2023-09-12T03:32:16;16.37;;;8.03;;
8268;SDS011;4174;48.304;16.364;2023-09-12T03:38:20;17.00;;;9.30;;
8268;SDS011;4174;48.304;16.364;2023-09-12T03:44:26;15.52;;;8.45;;
8268;SDS011;4174;48.304;16.364;2023-09-12T03:50:30;19.30;;;8.30;;
8268;SDS011;4174;48.304;16.364;2023-09-12T03:56:33;14.60;;;8.07;;
8268;SDS011;4174;48.304;16.364;2023-09-12T04:02:36;14.55;;;7.82;;
8268;SDS011;4174;48.304;16.364;2023-09-12T04:08:40;16.87;;;8.70;;
8268;SDS011;4174;48.304;16.364;2023-09-12T04:14:44;15.98;;;8.25;;
8268;SDS011;4174;48.304;16.364;2023-09-12T04:20:48;16.27;;;8.37;;
8268;SDS011;4174;48.304;16.364;2023-09-12T04:26:51;16.40;;;8.60;;
8268;SDS011;4174;48.304;16.364;2023-09-12T04:32:54;16.37;;;9.10;;
8268;SDS011;4174;48.304;16.364;2023-09-12T04:38:58;16.73;;;8.73;;
8268;SDS011;4174;48.304;16.364;2023-09-12T04:45:02;14.70;;;8.40;;
8268;SDS011;4174;48.304;16.364;2023-09-12T04:51:08;14.83;;;8.33;;
8268;SDS011;4174;48.304;16.364;2023-09-12T04:57:12;16.63;;;8.50;;
8268;SDS011;4174;48.304;16.364;2023-09-12T05:03:16;16.10;;;8.70;;
8268;SDS011;4174;48.304;16.364;2023-09-12T05:09:20;15.13;;;8.75;;
8268;SDS011;4174;48.304;16.364;2023-09-12T05:15:23;15.13;;;9.00;;
8268;SDS011;4174;48.304;16.364;2023-09-12T05:21:26;21.27;;;9.53;;
8268;SDS011;4174;48.304;16.364;2023-09-12T05:27:30;16.60;;;9.10;;
8268;SDS011;4174;48.304;16.364;2023-09-12T05:33:34;16.53;;;8.63;;
8268;SDS011;4174;48.304;16.364;2023-09-12T05:39:37;15.57;;;8.70;;
8268;SDS011;4174;48.304;16.364;2023-09-12T05:45:41;16.85;;;8.55;;
8268;SDS011;4174;48.304;16.364;2023-09-12T05:51:45;17.27;;;9.23;;
8268;SDS011;4174;48.304;16.364;2023-09-12T05:57:48;15.63;;;8.40;;
8268;SDS011;4174;48.304;16.364;2023-09-12T06:03:54;16.23;;;8.73;;
8268;SDS011;4174;48.304;16.364;2023-09-12T06:09:57;16.30;;;8.80;;
8268;SDS011;4174;48.304;16.364;2023-09-12T06:16:00;16.35;;;9.40;;
8268;SDS011;4174;48.304;16.364;2023-09-12T06:22:03;17.40;;;9.00;;
8268;SDS011;4174;48.304;16.364;2023-09-12T06:28:08;19.30;;;9.20;;
8268;SDS011;4174;48.304;16.364;2023-09-12T06:34:10;16.87;;;9.63;;
8268;SDS011;4174;48.304;16.364;2023-09-12T06:40:13;17.90;;;9.77;;
8268;SDS011;4174;48.304;16.364;2023-09-12T06:46:17;16.90;;;9.10;;
8268;SDS011;4174;48.304;16.364;2023-09-12T06:52:19;15.30;;;9.07;;
8268;SDS011;4174;48.304;16.364;2023-09-12T06:58:24;18.37;;;9.15;;
8268;SDS011;4174;48.304;16.364;2023-09-12T07:04:27;17.43;;;9.17;;
8268;SDS011;4174;48.304;16.364;2023-09-12T07:10:30;16.57;;;10.10;;
8268;SDS011;4174;48.304;16.364;2023-09-12T07:16:34;17.12;;;9.95;;
8268;SDS011;4174;48.304;16.364;2023-09-12T07:22:38;15.50;;;9.23;;
8268;SDS011;4174;48.304;16.364;2023-09-12T07:28:40;16.83;;;9.23;;
8268;SDS011;4174;48.304;16.364;2023-09-12T07:34:44;18.58;;;9.40;;
8268;SDS011;4174;48.304;16.364;2023-09-12T07:40:47;13.80;;;8.98;;
8268;SDS011;4174;48.304;16.364;2023-09-12T07:46:50;18.07;;;9.70;;
8268;SDS011;4174;48.304;16.364;2023-09-12T07:52:54;14.43;;;9.45;;
8268;SDS011;4174;48.304;16.364;2023-09-12T07:58:58;15.97;;;9.50;;
8268;SDS011;4174;48.304;16.364;2023-09-12T08:05:02;18.42;;;9.55;;
8268;SDS011;4174;48.304;16.364;2023-09-12T08:11:06;18.03;;;9.70;;
8268;SDS011;4174;48.304;16.364;2023-09-12T08:17:09;16.57;;;9.70;;
8268;SDS011;4174;48.304;16.364;2023-09-12T08:23:12;16.87;;;9.70;;
8268;SDS011;4174;48.304;16.364;2023-09-12T08:29:15;17.35;;;9.27;;
8268;SDS011;4174;48.304;16.364;2023-09-12T08:35:19;17.60;;;9.07;;
8268;SDS011;4174;48.304;16.364;2023-09-12T08:41:23;18.80;;;10.00;;
8268;SDS011;4174;48.304;16.364;2023-09-12T08:47:27;16.17;;;9.20;;
8268;SDS011;4174;48.304;16.364;2023-09-12T08:53:30;15.63;;;9.60;;
8268;SDS011;4174;48.304;16.364;2023-09-12T08:59:34;15.75;;;9.88;;
8268;SDS011;4174;48.304;16.364;2023-09-12T09:05:38;17.62;;;9.98;;
8268;SDS011;4174;48.304;16.364;2023-09-12T09:11:40;17.07;;;10.47;;
8268;SDS011;4174;48.304;16.364;2023-09-12T09:17:44;17.50;;;10.23;;
8268;SDS011;4174;48.304;16.364;2023-09-12T09:23:47;20.37;;;10.00;;
8268;SDS011;4174;48.304;16.364;2023-09-12T09:29:51;19.13;;;10.00;;
8268;SDS011;4174;48.304;16.364;2023-09-12T09:36:01;17.45;;;10.00;;
8268;SDS011;4174;48.304;16.364;2023-09-12T09:41:58;18.45;;;10.68;;
8268;SDS011;4174;48.304;16.364;2023-09-12T09:48:04;15.83;;;10.07;;
8268;SDS011;4174;48.304;16.364;2023-09-12T09:54:09;16.05;;;9.88;;
8268;SDS011;4174;48.304;16.364;2023-09-12T10:00:11;19.27;;;10.33;;
8268;SDS011;4174;48.304;16.364;2023-09-12T10:06:15;14.90;;;9.52;;
8268;SDS011;4174;48.304;16.364;2023-09-12T10:12:18;18.77;;;9.63;;
8268;SDS011;4174;48.304;16.364;2023-09-12T10:18:22;22.42;;;9.48;;
8268;SDS011;4174;48.304;16.364;2023-09-12T10:24:23;18.87;;;9.77;;
8268;SDS011;4174;48.304;16.364;2023-09-12T10:30:26;14.75;;;9.20;;
8268;SDS011;4174;48.304;16.364;2023-09-12T10:36:29;16.87;;;9.20;;
8268;SDS011;4174;48.304;16.364;2023-09-12T10:42:32;17.55;;;9.20;;
8268;SDS011;4174;48.304;16.364;2023-09-12T10:48:36;17.15;;;9.10;;
8268;SDS011;4174;48.304;16.364;2023-09-12T10:54:39;16.85;;;8.90;;
8268;SDS011;4174;48.304;16.364;2023-09-12T11:00:40;18.70;;;9.10;;
8268;SDS011;4174;48.304;16.364;2023-09-12T11:06:45;16.33;;;8.48;;
8268;SDS011;4174;48.304;16.364;2023-09-12T11:12:49;13.70;;;8.80;;
8268;SDS011;4174;48.304;16.364;2023-09-12T11:25:23;16.42;;;9.85;;
8268;SDS011;4174;48.304;16.364;2023-09-12T11:31:24;17.40;;;9.80;;
8268;SDS011;4174;48.304;16.364;2023-09-12T11:37:27;15.13;;;9.60;;
8268;SDS011;4174;48.304;16.364;2023-09-12T11:43:31;15.35;;;9.20;;
8268;SDS011;4174;48.304;16.364;2023-09-12T11:49:36;14.75;;;8.77;;
8268;SDS011;4174;48.304;16.364;2023-09-12T11:55:44;14.40;;;8.70;;
8268;SDS011;4174;48.304;16.364;2023-09-12T12:01:46;14.57;;;7.80;;
8268;SDS011;4174;48.304;16.364;2023-09-12T12:07:50;15.20;;;7.80;;
8268;SDS011;4174;48.304;16.364;2023-09-12T12:13:52;15.50;;;8.07;;
8268;SDS011;4174;48.304;16.364;2023-09-12T12:19:56;15.40;;;7.70;;
8268;SDS011;4174;48.304;16.364;2023-09-12T12:26:03;13.63;;;7.60;;
8268;SDS011;4174;48.304;16.364;2023-09-12T12:32:08;11.82;;;6.90;;
8268;SDS011;4174;48.304;16.364;2023-09-12T12:38:11;14.97;;;7.67;;
8268;SDS011;4174;48.304;16.364;2023-09-12T12:44:14;12.20;;;7.50;;
8268;SDS011;4174;48.304;16.364;2023-09-12T12:50:17;12.20;;;6.50;;
8268;SDS011;4174;48.304;16.364;2023-09-12T12:56:22;14.50;;;7.33;;
8268;SDS011;4174;48.304;16.364;2023-09-12T13:02:24;12.90;;;6.80;;
8268;SDS011;4174;48.304;16.364;2023-09-12T13:08:28;12.17;;;6.60;;
8268;SDS011;4174;48.304;16.364;2023-09-12T13:14:31;13.40;;;6.80;;
8268;SDS011;4174;48.304;16.364;2023-09-12T13:20:34;12.77;;;6.67;;
8268;SDS011;4174;48.304;16.364;2023-09-12T13:26:38;18.25;;;6.10;;
8268;SDS011;4174;48.304;16.364;2023-09-12T13:32:42;12.40;;;6.30;;
8268;SDS011;4174;48.304;16.364;2023-09-12T13:38:45;10.57;;;4.97;;
8268;SDS011;4174;48.304;16.364;2023-09-12T13:44:49;15.77;;;8.30;;
8268;SDS011;4174;48.304;16.364;2023-09-12T13:50:52;11.20;;;6.20;;
8268;SDS011;4174;48.304;16.364;2023-09-12T13:56:56;10.57;;;5.22;;
8268;SDS011;4174;48.304;16.364;2023-09-12T14:02:59;12.53;;;6.37;;
8268;SDS011;4174;48.304;16.364;2023-09-12T14:09:02;13.43;;;6.40;;
8268;SDS011;4174;48.304;16.364;2023-09-12T14:15:06;10.73;;;6.27;;
8268;SDS011;4174;48.304;16.364;2023-09-12T14:21:10;13.27;;;7.30;;
8268;SDS011;4174;48.304;16.364;2023-09-12T14:27:14;14.57;;;7.47;;
8268;SDS011;4174;48.304;16.364;2023-09-12T14:33:17;13.43;;;7.30;;
8268;SDS011;4174;48.304;16.364;2023-09-12T14:39:21;12.90;;;7.30;;
8268;SDS011;4174;48.304;16.364;2023-09-12T14:45:24;16.07;;;7.60;;
8268;SDS011;4174;48.304;16.364;2023-09-12T14:51:28;12.48;;;7.05;;
8268;SDS011;4174;48.304;16.364;2023-09-12T14:57:31;14.87;;;7.20;;
8268;SDS011;4174;48.304;16.364;2023-09-12T15:03:34;13.65;;;7.00;;
8268;SDS011;4174;48.304;16.364;2023-09-12T15:09:38;13.33;;;7.27;;
8268;SDS011;4174;48.304;16.364;2023-09-12T15:15:42;13.27;;;7.10;;
8268;SDS011;4174;48.304;16.364;2023-09-12T15:21:45;17.57;;;8.00;;
8268;SDS011;4174;48.304;16.364;2023-09-12T15:27:49;14.75;;;7.10;;
8268;SDS011;4174;48.304;16.364;2023-09-12T15:33:53;17.20;;;6.85;;
8268;SDS011;4174;48.304;16.364;2023-09-12T15:39:56;50.47;;;12.23;;
8268;SDS011;4174;48.304;16.364;2023-09-12T15:45:59;16.57;;;6.60;;
8268;SDS011;4174;48.304;16.364;2023-09-12T15:52:03;14.10;;;6.90;;
8268;SDS011;4174;48.304;16.364;2023-09-12T15:58:06;14.45;;;8.05;;
8268;SDS011;4174;48.304;16.364;2023-09-12T16:04:10;13.10;;;6.97;;
8268;SDS011;4174;48.304;16.364;2023-09-12T16:10:14;15.53;;;7.33;;
8268;SDS011;4174;48.304;16.364;2023-09-12T16:16:18;14.90;;;6.50;;
8268;SDS011;4174;48.304;16.364;2023-09-12T16:22:21;12.80;;;6.70;;
8268;SDS011;4174;48.304;16.364;2023-09-12T16:28:25;14.27;;;6.73;;
8268;SDS011;4174;48.304;16.364;2023-09-12T16:34:28;18.70;;;9.00;;
8268;SDS011;4174;48.304;16.364;2023-09-12T16:40:31;18.57;;;9.87;;
8268;SDS011;4174;48.304;16.364;2023-09-12T16:46:35;13.00;;;6.93;;
8268;SDS011;4174;48.304;16.364;2023-09-12T16:52:39;13.70;;;7.00;;
8268;SDS011;4174;48.304;16.364;2023-09-12T16:58:43;13.05;;;6.95;;
8268;SDS011;4174;48.304;16.364;2023-09-12T17:04:47;12.95;;;7.10;;
8268;SDS011;4174;48.304;16.364;2023-09-12T17:10:51;11.77;;;7.20;;
8268;SDS011;4174;48.304;16.364;2023-09-12T17:16:55;15.57;;;7.63;;
8268;SDS011;4174;48.304;16.364;2023-09-12T17:23:00;15.47;;;7.87;;
8268;SDS011;4174;48.304;16.364;2023-09-12T17:29:03;15.25;;;7.97;;
8268;SDS011;4174;48.304;16.364;2023-09-12T17:35:08;14.87;;;8.60;;
8268;SDS011;4174;48.304;16.364;2023-09-12T17:41:12;17.27;;;8.70;;
8268;SDS011;4174;48.304;16.364;2023-09-12T17:47:16;16.75;;;8.52;;
8268;SDS011;4174;48.304;16.364;2023-09-12T17:53:19;16.52;;;9.00;;
8268;SDS011;4174;48.304;16.364;2023-09-12T17:59:23;16.92;;;8.93;;
8268;SDS011;4174;48.304;16.364;2023-09-12T18:05:27;18.23;;;9.20;;
8268;SDS011;4174;48.304;16.364;2023-09-12T18:11:31;14.40;;;8.70;;
8268;SDS011;4174;48.304;16.364;2023-09-12T18:17:34;15.85;;;9.07;;
8268;SDS011;4174;48.304;16.364;2023-09-12T18:23:38;14.60;;;8.73;;
8268;SDS011;4174;48.304;16.364;2023-09-12T18:29:41;15.90;;;9.40;;
8268;SDS011;4174;48.304;16.364;2023-09-12T18:35:46;13.88;;;9.00;;
8268;SDS011;4174;48.304;16.364;2023-09-12T18:41:50;15.82;;;9.07;;
8268;SDS011;4174;48.304;16.364;2023-09-12T18:47:55;15.23;;;9.50;;
8268;SDS011;4174;48.304;16.364;2023-09-12T18:53:59;16.12;;;9.70;;
8268;SDS011;4174;48.304;16.364;2023-09-12T19:00:03;16.17;;;9.60;;
8268;SDS011;4174;48.304;16.364;2023-09-12T19:06:09;15.57;;;9.43;;
8268;SDS011;4174;48.304;16.364;2023-09-12T19:12:12;17.80;;;9.40;;
8268;SDS011;4174;48.304;16.364;2023-09-12T19:18:16;16.67;;;9.90;;
8268;SDS011;4174;48.304;16.364;2023-09-12T19:24:20;18.07;;;9.60;;
8268;SDS011;4174;48.304;16.364;2023-09-12T19:30:23;17.02;;;9.75;;
8268;SDS011;4174;48.304;16.364;2023-09-12T19:36:27;15.67;;;10.03;;
8268;SDS011;4174;48.304;16.364;2023-09-12T19:42:30;17.48;;;10.10;;
8268;SDS011;4174;48.304;16.364;2023-09-12T19:48:34;16.27;;;9.73;;
8268;SDS011;4174;48.304;16.364;2023-09-12T19:54:38;16.37;;;10.07;;
8268;SDS011;4174;48.304;16.364;2023-09-12T20:00:40;16.83;;;10.33;;
8268;SDS011;4174;48.304;16.364;2023-09-12T20:06:45;18.50;;;9.90;;
8268;SDS011;4174;48.304;16.364;2023-09-12T20:12:49;17.58;;;10.05;;
8268;SDS011;4174;48.304;16.364;2023-09-12T20:18:52;18.00;;;10.20;;
8268;SDS011;4174;48.304;16.364;2023-09-12T20:24:55;17.15;;;10.15;;
8268;SDS011;4174;48.304;16.364;2023-09-12T20:30:59;19.60;;;10.10;;
8268;SDS011;4174;48.304;16.364;2023-09-12T20:37:03;17.37;;;10.05;;
8268;SDS011;4174;48.304;16.364;2023-09-12T20:43:07;17.58;;;10.35;;
8268;SDS011;4174;48.304;16.364;2023-09-12T20:49:10;18.93;;;10.13;;
8268;SDS011;4174;48.304;16.364;2023-09-12T20:55:14;16.50;;;10.07;;
8268;SDS011;4174;48.304;16.364;2023-09-12T21:01:17;16.70;;;10.05;;
8268;SDS011;4174;48.304;16.364;2023-09-12T21:07:21;16.10;;;9.90;;
8268;SDS011;4174;48.304;16.364;2023-09-12T21:13:25;17.70;;;10.45;;
8268;SDS011;4174;48.304;16.364;2023-09-12T21:19:29;17.73;;;10.33;;
8268;SDS011;4174;48.304;16.364;2023-09-12T21:25:33;17.90;;;10.60;;
8268;SDS011;4174;48.304;16.364;2023-09-12T21:31:37;18.13;;;10.57;;
8268;SDS011;4174;48.304;16.364;2023-09-12T21:37:41;16.37;;;10.52;;
8268;SDS011;4174;48.304;16.364;2023-09-12T21:43:43;16.70;;;10.55;;
8268;SDS011;4174;48.304;16.364;2023-09-12T21:49:47;18.25;;;10.70;;
8268;SDS011;4174;48.304;16.364;2023-09-12T21:55:50;17.60;;;10.77;;
8268;SDS011;4174;48.304;16.364;2023-09-12T22:01:54;16.60;;;10.35;;
8268;SDS011;4174;48.304;16.364;2023-09-12T22:07:58;19.10;;;10.57;;
8268;SDS011;4174;48.304;16.364;2023-09-12T22:14:01;18.25;;;10.80;;
8268;SDS011;4174;48.304;16.364;2023-09-12T22:20:07;19.87;;;10.37;;
8268;SDS011;4174;48.304;16.364;2023-09-12T22:26:12;19.60;;;10.83;;
8268;SDS011;4174;48.304;16.364;2023-09-12T22:32:15;19.40;;;10.90;;
8268;SDS011;4174;48.304;16.364;2023-09-12T22:38:19;17.17;;;10.65;;
8268;SDS011;4174;48.304;16.364;2023-09-12T22:44:22;21.23;;;10.63;;
8268;SDS011;4174;48.304;16.364;2023-09-12T22:50:27;17.67;;;10.88;;
8268;SDS011;4174;48.304;16.364;2023-09-12T22:56:31;20.40;;;11.10;;
8268;SDS011;4174;48.304;16.364;2023-09-12T23:02:35;17.02;;;10.90;;
8268;SDS011;4174;48.304;16.364;2023-09-12T23:08:38;21.20;;;11.00;;
8268;SDS011;4174;48.304;16.364;2023-09-12T23:14:42;18.63;;;11.50;;
8268;SDS011;4174;48.304;16.364;2023-09-12T23:20:45;18.77;;;10.90;;
8268;SDS011;4174;48.304;16.364;2023-09-12T23:26:48;16.63;;;10.57;;
8268;SDS011;4174;48.304;16.364;2023-09-12T23:32:52;19.33;;;10.55;;
8268;SDS011;4174;48.304;16.364;2023-09-12T23:38:56;18.55;;;10.63;;
8268;SDS011;4174;48.304;16.364;2023-09-12T23:45:01;17.80;;;10.57;;
8268;SDS011;4174;48.304;16.364;2023-09-12T23:51:02;18.40;;;10.90;;
8268;SDS011;4174;48.304;16.364;2023-09-12T23:57:06;17.05;;;10.68;;
